Jackson, KY

12:01 AM EST on December 28, 2014 (GMT -0500)
Carroll | Change Station
CLOSE
Current Station
Airport
Location: Jackson,
Elevation: 1381 ft
Nearby Weather Stations

Elev 1381 ft 37.59 °N, 83.31 °W | Updated 8 minutes ago

Overcast
Overcast
49 °F
Feels Like 49 °F
N
5
Wind Variable Wind from SW

Today
High -- | Low -- °F
--% Chance of Precip.
Yesterday
High -- | Low -- °F
Precip. -- in
7:47 AM 5:22 PM
Waxing Crescent, 44% visible
Pressure 30.08 in
Visibility 10.0 miles
Clouds Mostly Cloudy 2700 ft
Overcast 3200 ft
Dew Point 40 °F
Humidity 71%
Rainfall 0.01 in
Snow Depth Not available.
UV 0 out of 12
Pollen .10 out of 12
Air Quality Not available.
Flu Activity Not available.
METAR KJKL 280453Z AUTO 23004KT 10SM BKN027 OVC032 09/04 A3008 RMK AO2 RAB0358E08 SLP184 P0000 T00940044 401610067 $

More Conditions Fewer Conditions

Pressure 30.08 in
Visibility 10.0 miles
Clouds Mostly Cloudy 2700 ft
Overcast 3200 ft
Dew Point 40 °F
Humidity 71%
Rainfall 0.01 in
Snow Depth Not available.
UV 0 out of 12
Pollen .10 out of 12
Air Quality Not available.
Flu Activity Not available.
METAR KJKL 280453Z AUTO 23004KT 10SM BKN027 OVC032 09/04 A3008 RMK AO2 RAB0358E08 SLP184 P0000 T00940044 401610067 $

More Conditions Fewer Conditions

10-Day Weather Forecast

Almanac

Astronomy

Dec. 28, 2014 Rise Set
Actual Time
Civil Twilight
Nautical Twilight
Astronomical Twilight
Moon
Length of Visible Light
Length of Day
Tomorrow will be .
, % of the Moon is Illuminated

Today's Extremes

State Highs State Lows

Community

WunderPhotos

Upload Photos

1,781,205 photos uploaded!

WunderBlogs® & News

Nearby

Air Quality

  Air Quality AQ Index Pollutant
Not available.

Snow Depth

Station Depth Elevation

Earthquake Activity

City Distance Mag. Time & Date
Minimum magnitude displayed is 2.5.

Coastal Water Temperatures

Place Temperature

Nearby Weather Stations